sensor_id;sensor_type;location;lat;lon;timestamp;pressure;altitude;pressure_sealevel;temperature;humidity
57668;BME280;43499;52.366;12.912;2024-03-06T00:00:51;101677.97;;;2.83;71.12
57668;BME280;43499;52.366;12.912;2024-03-06T00:01:52;101677.97;;;2.83;71.14
57668;BME280;43499;52.366;12.912;2024-03-06T00:02:53;101674.47;;;2.82;71.46
57668;BME280;43499;52.366;12.912;2024-03-06T00:03:54;101681.94;;;2.86;71.30
57668;BME280;43499;52.366;12.912;2024-03-06T00:04:55;101692.34;;;2.93;71.69
57668;BME280;43499;52.366;12.912;2024-03-06T00:05:56;101689.75;;;2.93;71.60
57668;BME280;43499;52.366;12.912;2024-03-06T00:06:57;101685.63;;;2.88;71.63
57668;BME280;43499;52.366;12.912;2024-03-06T00:07:58;101676.16;;;2.82;71.92
57668;BME280;43499;52.366;12.912;2024-03-06T00:09:01;101695.09;;;2.88;72.01
57668;BME280;43499;52.366;12.912;2024-03-06T00:10:04;101683.94;;;2.82;71.94
57668;BME280;43499;52.366;12.912;2024-03-06T00:11:05;101693.41;;;2.88;72.30
57668;BME280;43499;52.366;12.912;2024-03-06T00:12:06;101699.38;;;2.87;72.18
57668;BME280;43499;52.366;12.912;2024-03-06T00:13:08;101692.66;;;2.82;72.26
57668;BME280;43499;52.366;12.912;2024-03-06T00:14:09;101686.31;;;2.80;72.12
57668;BME280;43499;52.366;12.912;2024-03-06T00:15:13;101703.78;;;2.88;72.29
57668;BME280;43499;52.366;12.912;2024-03-06T00:16:14;101675.19;;;2.81;72.07
57668;BME280;43499;52.366;12.912;2024-03-06T00:17:15;101700.13;;;2.93;72.28
57668;BME280;43499;52.366;12.912;2024-03-06T00:18:16;101682.84;;;2.87;72.19
57668;BME280;43499;52.366;12.912;2024-03-06T00:19:29;101694.78;;;2.99;72.15
57668;BME280;43499;52.366;12.912;2024-03-06T00:20:30;101680.66;;;2.97;71.93
57668;BME280;43499;52.366;12.912;2024-03-06T00:21:31;101694.44;;;3.03;71.75
57668;BME280;43499;52.366;12.912;2024-03-06T00:22:32;101702.97;;;3.02;72.10
57668;BME280;43499;52.366;12.912;2024-03-06T00:23:33;101696.06;;;2.96;71.76
57668;BME280;43499;52.366;12.912;2024-03-06T00:24:36;101693.09;;;3.00;71.94
57668;BME280;43499;52.366;12.912;2024-03-06T00:25:37;101690.47;;;2.92;71.85
57668;BME280;43499;52.366;12.912;2024-03-06T00:26:42;101681.19;;;2.87;71.99
57668;BME280;43499;52.366;12.912;2024-03-06T00:27:43;101678.13;;;2.77;72.32
57668;BME280;43499;52.366;12.912;2024-03-06T00:28:44;101702.31;;;2.83;72.33
57668;BME280;43499;52.366;12.912;2024-03-06T00:29:45;101701.72;;;2.78;72.29
57668;BME280;43499;52.366;12.912;2024-03-06T00:30:46;101701.50;;;2.77;72.52
57668;BME280;43499;52.366;12.912;2024-03-06T00:31:47;101697.81;;;2.75;72.67
57668;BME280;43499;52.366;12.912;2024-03-06T00:32:48;101698.91;;;2.77;72.54
57668;BME280;43499;52.366;12.912;2024-03-06T00:33:49;101692.41;;;2.73;72.69
57668;BME280;43499;52.366;12.912;2024-03-06T00:34:50;101697.22;;;2.70;72.61
57668;BME280;43499;52.366;12.912;2024-03-06T00:35:52;101695.69;;;2.65;72.62
57668;BME280;43499;52.366;12.912;2024-03-06T00:36:53;101705.16;;;2.65;73.10
57668;BME280;43499;52.366;12.912;2024-03-06T00:37:55;101705.66;;;2.62;73.56
57668;BME280;43499;52.366;12.912;2024-03-06T00:38:56;101699.34;;;2.60;73.34
57668;BME280;43499;52.366;12.912;2024-03-06T00:39:57;101684.63;;;2.53;73.39
57668;BME280;43499;52.366;12.912;2024-03-06T00:40:58;101696.56;;;2.58;73.70
57668;BME280;43499;52.366;12.912;2024-03-06T00:41:59;101697.63;;;2.53;74.21
57668;BME280;43499;52.366;12.912;2024-03-06T00:43:00;101711.66;;;2.68;73.93
57668;BME280;43499;52.366;12.912;2024-03-06T00:44:02;101709.44;;;2.71;73.53
57668;BME280;43499;52.366;12.912;2024-03-06T00:45:03;101700.53;;;2.69;74.04
57668;BME280;43499;52.366;12.912;2024-03-06T00:46:05;101704.63;;;2.74;73.91
57668;BME280;43499;52.366;12.912;2024-03-06T00:47:06;101718.94;;;2.78;73.68
57668;BME280;43499;52.366;12.912;2024-03-06T00:48:07;101705.22;;;2.52;73.76
57668;BME280;43499;52.366;12.912;2024-03-06T00:49:08;101713.41;;;2.55;74.21
57668;BME280;43499;52.366;12.912;2024-03-06T00:50:09;101698.25;;;2.58;74.46
57668;BME280;43499;52.366;12.912;2024-03-06T00:51:10;101700.69;;;2.64;74.08
57668;BME280;43499;52.366;12.912;2024-03-06T00:52:11;101715.59;;;2.79;73.51
57668;BME280;43499;52.366;12.912;2024-03-06T00:53:12;101714.47;;;2.77;73.42
57668;BME280;43499;52.366;12.912;2024-03-06T00:54:13;101725.28;;;2.60;73.22
57668;BME280;43499;52.366;12.912;2024-03-06T00:55:14;101713.16;;;2.46;73.18
57668;BME280;43499;52.366;12.912;2024-03-06T00:56:15;101720.19;;;2.47;72.71
57668;BME280;43499;52.366;12.912;2024-03-06T00:57:16;101697.81;;;2.27;72.74
57668;BME280;43499;52.366;12.912;2024-03-06T00:58:17;101721.88;;;2.46;72.97
57668;BME280;43499;52.366;12.912;2024-03-06T00:59:18;101712.81;;;2.30;73.49
57668;BME280;43499;52.366;12.912;2024-03-06T01:00:19;101719.06;;;2.45;73.98
57668;BME280;43499;52.366;12.912;2024-03-06T01:01:20;101697.03;;;2.49;73.51
57668;BME280;43499;52.366;12.912;2024-03-06T01:02:21;101730.19;;;2.71;73.43
57668;BME280;43499;52.366;12.912;2024-03-06T01:03:22;101727.97;;;2.67;73.06
57668;BME280;43499;52.366;12.912;2024-03-06T01:04:23;101726.66;;;2.64;73.02
57668;BME280;43499;52.366;12.912;2024-03-06T01:05:24;101703.94;;;2.55;72.98
57668;BME280;43499;52.366;12.912;2024-03-06T01:06:26;101693.34;;;2.46;73.02
57668;BME280;43499;52.366;12.912;2024-03-06T01:07:27;101728.44;;;2.57;72.60
57668;BME280;43499;52.366;12.912;2024-03-06T01:08:28;101741.88;;;2.68;73.04
57668;BME280;43499;52.366;12.912;2024-03-06T01:09:29;101731.47;;;2.68;73.33
57668;BME280;43499;52.366;12.912;2024-03-06T01:10:30;101738.22;;;2.73;73.25
57668;BME280;43499;52.366;12.912;2024-03-06T01:11:31;101723.84;;;2.62;72.75
57668;BME280;43499;52.366;12.912;2024-03-06T01:12:33;101721.34;;;2.49;72.77
57668;BME280;43499;52.366;12.912;2024-03-06T01:13:34;101740.13;;;2.61;73.23
57668;BME280;43499;52.366;12.912;2024-03-06T01:14:35;101750.81;;;2.77;73.43
57668;BME280;43499;52.366;12.912;2024-03-06T01:15:37;101748.63;;;2.80;72.67
57668;BME280;43499;52.366;12.912;2024-03-06T01:16:38;101734.00;;;2.81;72.65
57668;BME280;43499;52.366;12.912;2024-03-06T01:17:39;101741.56;;;2.79;72.40
57668;BME280;43499;52.366;12.912;2024-03-06T01:18:40;101736.34;;;2.72;72.91
57668;BME280;43499;52.366;12.912;2024-03-06T01:19:41;101734.81;;;2.67;72.99
57668;BME280;43499;52.366;12.912;2024-03-06T01:20:44;101734.22;;;2.62;74.29
57668;BME280;43499;52.366;12.912;2024-03-06T01:21:45;101734.44;;;2.64;74.32
57668;BME280;43499;52.366;12.912;2024-03-06T01:22:46;101726.56;;;2.56;74.03
57668;BME280;43499;52.366;12.912;2024-03-06T01:23:47;101739.00;;;2.59;73.96
57668;BME280;43499;52.366;12.912;2024-03-06T01:24:48;101732.84;;;2.51;75.39
57668;BME280;43499;52.366;12.912;2024-03-06T01:25:51;101716.16;;;2.49;76.01
57668;BME280;43499;52.366;12.912;2024-03-06T01:26:52;101742.56;;;2.59;76.37
57668;BME280;43499;52.366;12.912;2024-03-06T01:27:54;101719.16;;;2.52;76.68
57668;BME280;43499;52.366;12.912;2024-03-06T01:28:55;101731.09;;;2.65;76.80
57668;BME280;43499;52.366;12.912;2024-03-06T01:29:56;101740.22;;;2.68;76.73
57668;BME280;43499;52.366;12.912;2024-03-06T01:30:57;101743.94;;;2.70;76.55
57668;BME280;43499;52.366;12.912;2024-03-06T01:31:59;101735.34;;;2.64;76.33
57668;BME280;43499;52.366;12.912;2024-03-06T01:33:00;101750.78;;;2.70;76.51
57668;BME280;43499;52.366;12.912;2024-03-06T01:34:02;101747.59;;;2.65;75.75
57668;BME280;43499;52.366;12.912;2024-03-06T01:35:03;101751.94;;;2.31;76.00
57668;BME280;43499;52.366;12.912;2024-03-06T01:36:06;101741.81;;;2.20;76.47
57668;BME280;43499;52.366;12.912;2024-03-06T01:37:07;101757.47;;;2.27;76.08
57668;BME280;43499;52.366;12.912;2024-03-06T01:38:08;101746.41;;;2.15;75.64
57668;BME280;43499;52.366;12.912;2024-03-06T01:39:10;101731.97;;;2.18;75.50
57668;BME280;43499;52.366;12.912;2024-03-06T01:40:12;101755.06;;;2.49;75.43
57668;BME280;43499;52.366;12.912;2024-03-06T01:41:14;101750.16;;;2.58;75.26
57668;BME280;43499;52.366;12.912;2024-03-06T01:42:17;101753.19;;;2.68;74.69
57668;BME280;43499;52.366;12.912;2024-03-06T01:43:23;101750.75;;;2.62;75.40
57668;BME280;43499;52.366;12.912;2024-03-06T01:44:24;101762.25;;;2.65;77.14
57668;BME280;43499;52.366;12.912;2024-03-06T01:45:25;101734.34;;;2.56;77.16
57668;BME280;43499;52.366;12.912;2024-03-06T01:46:26;101759.31;;;2.69;76.92
57668;BME280;43499;52.366;12.912;2024-03-06T01:47:27;101756.16;;;2.71;77.39
57668;BME280;43499;52.366;12.912;2024-03-06T01:48:30;101756.56;;;2.74;77.26
57668;BME280;43499;52.366;12.912;2024-03-06T01:49:32;101755.78;;;2.68;77.03
57668;BME280;43499;52.366;12.912;2024-03-06T01:50:33;101759.78;;;2.59;76.27
57668;BME280;43499;52.366;12.912;2024-03-06T01:51:35;101759.19;;;2.54;75.75
57668;BME280;43499;52.366;12.912;2024-03-06T01:52:37;101735.78;;;2.47;75.94
57668;BME280;43499;52.366;12.912;2024-03-06T01:53:39;101760.53;;;2.58;75.35
57668;BME280;43499;52.366;12.912;2024-03-06T01:54:40;101744.81;;;2.43;75.07
57668;BME280;43499;52.366;12.912;2024-03-06T01:55:42;101770.41;;;2.47;75.40
57668;BME280;43499;52.366;12.912;2024-03-06T01:56:45;101766.50;;;2.44;75.94
57668;BME280;43499;52.366;12.912;2024-03-06T01:57:46;101764.31;;;2.47;75.72
57668;BME280;43499;52.366;12.912;2024-03-06T01:58:47;101765.03;;;2.46;75.81
57668;BME280;43499;52.366;12.912;2024-03-06T01:59:49;101762.31;;;2.52;75.48
57668;BME280;43499;52.366;12.912;2024-03-06T02:00:50;101762.00;;;2.56;75.84
57668;BME280;43499;52.366;12.912;2024-03-06T02:01:55;101761.59;;;2.53;75.70
57668;BME280;43499;52.366;12.912;2024-03-06T02:02:56;101755.63;;;2.46;75.72
57668;BME280;43499;52.366;12.912;2024-03-06T02:03:57;101765.09;;;2.53;75.32
57668;BME280;43499;52.366;12.912;2024-03-06T02:04:59;101766.22;;;2.55;75.85
57668;BME280;43499;52.366;12.912;2024-03-06T02:06:02;101759.41;;;2.56;75.89
57668;BME280;43499;52.366;12.912;2024-03-06T02:07:07;101768.31;;;2.58;75.62
57668;BME280;43499;52.366;12.912;2024-03-06T02:08:09;101767.81;;;2.47;75.47
57668;BME280;43499;52.366;12.912;2024-03-06T02:09:10;101722.59;;;2.25;75.63
57668;BME280;43499;52.366;12.912;2024-03-06T02:10:11;101745.56;;;2.42;75.99
57668;BME280;43499;52.366;12.912;2024-03-06T02:11:13;101751.28;;;2.40;76.92
57668;BME280;43499;52.366;12.912;2024-03-06T02:12:14;101762.13;;;2.50;77.27
57668;BME280;43499;52.366;12.912;2024-03-06T02:13:15;101721.66;;;2.25;77.21
57668;BME280;43499;52.366;12.912;2024-03-06T02:14:16;101736.63;;;2.40;77.17
57668;BME280;43499;52.366;12.912;2024-03-06T02:15:17;101747.41;;;2.43;76.88
57668;BME280;43499;52.366;12.912;2024-03-06T02:16:18;101753.22;;;2.48;76.98
57668;BME280;43499;52.366;12.912;2024-03-06T02:17:19;101752.66;;;2.51;77.53
57668;BME280;43499;52.366;12.912;2024-03-06T02:18:21;101740.78;;;2.45;77.57
57668;BME280;43499;52.366;12.912;2024-03-06T02:19:22;101769.03;;;2.57;76.79
57668;BME280;43499;52.366;12.912;2024-03-06T02:20:24;101758.72;;;2.44;77.21
57668;BME280;43499;52.366;12.912;2024-03-06T02:21:26;101766.59;;;2.51;77.29
57668;BME280;43499;52.366;12.912;2024-03-06T02:22:27;101758.44;;;2.55;77.79
57668;BME280;43499;52.366;12.912;2024-03-06T02:23:28;101746.16;;;2.47;77.66
57668;BME280;43499;52.366;12.912;2024-03-06T02:24:29;101730.53;;;2.40;78.25
57668;BME280;43499;52.366;12.912;2024-03-06T02:25:30;101761.41;;;2.51;77.89
57668;BME280;43499;52.366;12.912;2024-03-06T02:26:31;101741.88;;;2.47;77.93
57668;BME280;43499;52.366;12.912;2024-03-06T02:27:32;101764.31;;;2.47;77.32
57668;BME280;43499;52.366;12.912;2024-03-06T02:28:33;101730.34;;;2.18;77.71
57668;BME280;43499;52.366;12.912;2024-03-06T02:29:35;101744.03;;;2.17;77.98
57668;BME280;43499;52.366;12.912;2024-03-06T02:30:39;101770.50;;;2.35;77.55
57668;BME280;43499;52.366;12.912;2024-03-06T02:31:40;101772.41;;;2.43;77.82
57668;BME280;43499;52.366;12.912;2024-03-06T02:32:42;101766.91;;;2.47;77.03
57668;BME280;43499;52.366;12.912;2024-03-06T02:33:44;101773.44;;;2.51;76.90
57668;BME280;43499;52.366;12.912;2024-03-06T02:34:45;101760.13;;;2.35;76.33
57668;BME280;43499;52.366;12.912;2024-03-06T02:35:46;101780.22;;;2.43;76.33
57668;BME280;43499;52.366;12.912;2024-03-06T02:36:47;101761.53;;;2.25;75.74
57668;BME280;43499;52.366;12.912;2024-03-06T02:37:48;101769.31;;;2.25;75.58
57668;BME280;43499;52.366;12.912;2024-03-06T02:38:49;101763.28;;;2.19;75.36
57668;BME280;43499;52.366;12.912;2024-03-06T02:39:51;101784.69;;;2.24;75.31
57668;BME280;43499;52.366;12.912;2024-03-06T02:40:52;101757.63;;;2.09;75.17
57668;BME280;43499;52.366;12.912;2024-03-06T02:41:53;101780.00;;;2.21;74.87
57668;BME280;43499;52.366;12.912;2024-03-06T02:42:54;101782.41;;;2.20;74.64
57668;BME280;43499;52.366;12.912;2024-03-06T02:43:55;101781.13;;;2.23;74.96
57668;BME280;43499;52.366;12.912;2024-03-06T02:44:56;101760.09;;;2.14;74.68
57668;BME280;43499;52.366;12.912;2024-03-06T02:45:57;101753.59;;;2.11;74.72
57668;BME280;43499;52.366;12.912;2024-03-06T02:46:58;101771.97;;;2.12;74.15
57668;BME280;43499;52.366;12.912;2024-03-06T02:47:59;101768.00;;;2.09;74.05
57668;BME280;43499;52.366;12.912;2024-03-06T02:49:00;101772.81;;;2.06;74.44
57668;BME280;43499;52.366;12.912;2024-03-06T02:50:01;101765.88;;;1.99;74.67
57668;BME280;43499;52.366;12.912;2024-03-06T02:51:02;101782.47;;;2.07;74.54
57668;BME280;43499;52.366;12.912;2024-03-06T02:52:03;101766.28;;;2.02;74.89
57668;BME280;43499;52.366;12.912;2024-03-06T02:53:04;101773.53;;;2.05;74.62
57668;BME280;43499;52.366;12.912;2024-03-06T02:54:05;101776.53;;;2.08;74.71
57668;BME280;43499;52.366;12.912;2024-03-06T02:55:07;101762.75;;;2.02;74.91
57668;BME280;43499;52.366;12.912;2024-03-06T02:56:15;101776.53;;;2.08;74.34
57668;BME280;43499;52.366;12.912;2024-03-06T02:57:16;101775.91;;;2.03;74.70
57668;BME280;43499;52.366;12.912;2024-03-06T02:58:17;101766.63;;;1.98;74.80
57668;BME280;43499;52.366;12.912;2024-03-06T02:59:18;101780.97;;;2.09;74.60
57668;BME280;43499;52.366;12.912;2024-03-06T03:00:19;101790.63;;;2.10;74.78
57668;BME280;43499;52.366;12.912;2024-03-06T03:01:21;101757.16;;;1.98;74.74
57668;BME280;43499;52.366;12.912;2024-03-06T03:02:22;101786.56;;;2.12;74.46
57668;BME280;43499;52.366;12.912;2024-03-06T03:03:24;101780.25;;;2.10;74.35
57668;BME280;43499;52.366;12.912;2024-03-06T03:04:25;101776.31;;;2.06;74.48
57668;BME280;43499;52.366;12.912;2024-03-06T03:05:27;101794.47;;;2.06;74.64
57668;BME280;43499;52.366;12.912;2024-03-06T03:06:28;101784.97;;;1.99;74.59
57668;BME280;43499;52.366;12.912;2024-03-06T03:07:29;101792.44;;;2.04;74.62
57668;BME280;43499;52.366;12.912;2024-03-06T03:08:30;101791.75;;;2.12;75.31
57668;BME280;43499;52.366;12.912;2024-03-06T03:09:32;101779.53;;;2.11;74.75
57668;BME280;43499;52.366;12.912;2024-03-06T03:10:33;101777.41;;;2.01;74.27
57668;BME280;43499;52.366;12.912;2024-03-06T03:11:37;101775.00;;;2.03;75.04
57668;BME280;43499;52.366;12.912;2024-03-06T03:12:38;101795.69;;;2.15;74.74
57668;BME280;43499;52.366;12.912;2024-03-06T03:13:40;101791.16;;;2.07;74.85
57668;BME280;43499;52.366;12.912;2024-03-06T03:14:41;101801.59;;;2.14;75.02
57668;BME280;43499;52.366;12.912;2024-03-06T03:15:42;101780.78;;;2.07;74.70
57668;BME280;43499;52.366;12.912;2024-03-06T03:16:44;101784.66;;;2.04;74.54
57668;BME280;43499;52.366;12.912;2024-03-06T03:17:45;101774.22;;;1.83;74.96
57668;BME280;43499;52.366;12.912;2024-03-06T03:18:46;101782.00;;;1.83;75.14
57668;BME280;43499;52.366;12.912;2024-03-06T03:19:48;101789.13;;;1.92;75.48
57668;BME280;43499;52.366;12.912;2024-03-06T03:20:49;101794.41;;;1.99;75.56
57668;BME280;43499;52.366;12.912;2024-03-06T03:21:50;101805.47;;;2.11;75.64
57668;BME280;43499;52.366;12.912;2024-03-06T03:22:51;101809.06;;;2.19;76.12
57668;BME280;43499;52.366;12.912;2024-03-06T03:23:52;101800.81;;;2.08;76.12
57668;BME280;43499;52.366;12.912;2024-03-06T03:24:53;101809.19;;;2.13;76.52
57668;BME280;43499;52.366;12.912;2024-03-06T03:25:54;101805.03;;;2.08;76.25
57668;BME280;43499;52.366;12.912;2024-03-06T03:26:55;101792.31;;;1.96;76.42
57668;BME280;43499;52.366;12.912;2024-03-06T03:27:56;101811.72;;;2.06;76.73
57668;BME280;43499;52.366;12.912;2024-03-06T03:28:58;101812.75;;;2.00;77.31
57668;BME280;43499;52.366;12.912;2024-03-06T03:29:59;101800.31;;;1.98;77.97
57668;BME280;43499;52.366;12.912;2024-03-06T03:31:00;101801.13;;;2.04;77.85
57668;BME280;43499;52.366;12.912;2024-03-06T03:32:01;101776.38;;;1.93;77.44
57668;BME280;43499;52.366;12.912;2024-03-06T03:33:02;101787.56;;;1.99;77.17
57668;BME280;43499;52.366;12.912;2024-03-06T03:34:05;101798.53;;;2.04;76.98
57668;BME280;43499;52.366;12.912;2024-03-06T03:35:06;101816.66;;;2.17;77.20
57668;BME280;43499;52.366;12.912;2024-03-06T03:36:08;101819.63;;;2.20;77.14
57668;BME280;43499;52.366;12.912;2024-03-06T03:37:09;101820.78;;;2.22;76.58
57668;BME280;43499;52.366;12.912;2024-03-06T03:38:10;101810.66;;;2.11;76.40
57668;BME280;43499;52.366;12.912;2024-03-06T03:39:11;101799.47;;;2.05;76.10
57668;BME280;43499;52.366;12.912;2024-03-06T03:40:16;101798.88;;;2.00;76.09
57668;BME280;43499;52.366;12.912;2024-03-06T03:41:17;101809.84;;;2.05;76.48
57668;BME280;43499;52.366;12.912;2024-03-06T03:42:19;101798.47;;;1.97;76.59
57668;BME280;43499;52.366;12.912;2024-03-06T03:43:20;101821.06;;;1.98;75.89
57668;BME280;43499;52.366;12.912;2024-03-06T03:44:21;101831.97;;;1.95;75.81
57668;BME280;43499;52.366;12.912;2024-03-06T03:45:22;101832.28;;;1.91;76.18
57668;BME280;43499;52.366;12.912;2024-03-06T03:46:23;101827.91;;;1.97;76.32
57668;BME280;43499;52.366;12.912;2024-03-06T03:47:24;101800.56;;;1.87;76.10
57668;BME280;43499;52.366;12.912;2024-03-06T03:48:25;101827.41;;;2.00;76.06
57668;BME280;43499;52.366;12.912;2024-03-06T03:49:26;101819.84;;;1.89;75.89
57668;BME280;43499;52.366;12.912;2024-03-06T03:50:28;101826.69;;;1.88;76.21
57668;BME280;43499;52.366;12.912;2024-03-06T03:51:30;101833.63;;;1.95;76.37
57668;BME280;43499;52.366;12.912;2024-03-06T03:52:31;101828.84;;;1.98;75.87
57668;BME280;43499;52.366;12.912;2024-03-06T03:53:33;101828.31;;;2.00;75.57
57668;BME280;43499;52.366;12.912;2024-03-06T03:54:34;101823.25;;;1.95;75.63
57668;BME280;43499;52.366;12.912;2024-03-06T03:55:35;101830.91;;;2.00;75.75
57668;BME280;43499;52.366;12.912;2024-03-06T03:56:37;101811.13;;;1.88;76.20
57668;BME280;43499;52.366;12.912;2024-03-06T03:57:38;101827.19;;;1.98;76.51
57668;BME280;43499;52.366;12.912;2024-03-06T03:58:39;101811.59;;;1.78;76.74
57668;BME280;43499;52.366;12.912;2024-03-06T03:59:40;101818.50;;;1.85;77.01
57668;BME280;43499;52.366;12.912;2024-03-06T04:00:42;101813.66;;;1.68;77.81
57668;BME280;43499;52.366;12.912;2024-03-06T04:01:45;101832.75;;;1.68;78.21
57668;BME280;43499;52.366;12.912;2024-03-06T04:02:47;101832.22;;;1.84;77.96
57668;BME280;43499;52.366;12.912;2024-03-06T04:03:48;101819.13;;;1.77;77.90
57668;BME280;43499;52.366;12.912;2024-03-06T04:04:49;101832.75;;;1.68;78.06
57668;BME280;43499;52.366;12.912;2024-03-06T04:05:51;101826.00;;;1.76;78.34
57668;BME280;43499;52.366;12.912;2024-03-06T04:06:52;101835.19;;;1.87;77.74
57668;BME280;43499;52.366;12.912;2024-03-06T04:07:53;101833.00;;;1.90;77.79
57668;BME280;43499;52.366;12.912;2024-03-06T04:08:54;101817.38;;;1.83;77.93
57668;BME280;43499;52.366;12.912;2024-03-06T04:09:55;101814.56;;;1.94;78.05
57668;BME280;43499;52.366;12.912;2024-03-06T04:10:56;101832.34;;;2.11;77.82
57668;BME280;43499;52.366;12.912;2024-03-06T04:11:57;101815.34;;;2.00;77.93
57668;BME280;43499;52.366;12.912;2024-03-06T04:12:59;101825.72;;;2.00;78.03
57668;BME280;43499;52.366;12.912;2024-03-06T04:14:00;101832.97;;;2.03;78.19
57668;BME280;43499;52.366;12.912;2024-03-06T04:15:01;101832.34;;;2.11;78.34
57668;BME280;43499;52.366;12.912;2024-03-06T04:16:03;101806.56;;;1.93;78.09
57668;BME280;43499;52.366;12.912;2024-03-06T04:17:04;101823.44;;;1.96;78.13
57668;BME280;43499;52.366;12.912;2024-03-06T04:18:06;101830.97;;;2.08;78.44
57668;BME280;43499;52.366;12.912;2024-03-06T04:19:07;101842.31;;;2.08;78.71
57668;BME280;43499;52.366;12.912;2024-03-06T04:20:08;101825.78;;;1.88;78.89
57668;BME280;43499;52.366;12.912;2024-03-06T04:21:12;101837.28;;;1.90;79.59
57668;BME280;43499;52.366;12.912;2024-03-06T04:22:18;101838.13;;;1.83;79.74
57668;BME280;43499;52.366;12.912;2024-03-06T04:23:19;101825.34;;;1.84;80.01
57668;BME280;43499;52.366;12.912;2024-03-06T04:24:20;101843.47;;;1.97;79.54
57668;BME280;43499;52.366;12.912;2024-03-06T04:25:21;101831.88;;;2.01;79.68
57668;BME280;43499;52.366;12.912;2024-03-06T04:26:24;101834.81;;;2.17;79.21
57668;BME280;43499;52.366;12.912;2024-03-06T04:27:25;101840.25;;;2.26;79.51
57668;BME280;43499;52.366;12.912;2024-03-06T04:28:26;101835.19;;;2.20;79.00
57668;BME280;43499;52.366;12.912;2024-03-06T04:29:28;101833.56;;;2.21;79.69
57668;BME280;43499;52.366;12.912;2024-03-06T04:30:29;101808.47;;;2.14;80.08
57668;BME280;43499;52.366;12.912;2024-03-06T04:31:30;101841.81;;;2.31;80.14
57668;BME280;43499;52.366;12.912;2024-03-06T04:32:31;101820.19;;;2.18;80.73
57668;BME280;43499;52.366;12.912;2024-03-06T04:33:33;101818.72;;;2.20;80.60
57668;BME280;43499;52.366;12.912;2024-03-06T04:34:34;101837.34;;;2.30;80.62
57668;BME280;43499;52.366;12.912;2024-03-06T04:35:35;101830.13;;;2.27;80.37
57668;BME280;43499;52.366;12.912;2024-03-06T04:36:36;101828.03;;;2.25;80.32
57668;BME280;43499;52.366;12.912;2024-03-06T04:37:37;101839.75;;;2.28;80.26
57668;BME280;43499;52.366;12.912;2024-03-06T04:38:38;101820.50;;;2.13;80.65
57668;BME280;43499;52.366;12.912;2024-03-06T04:39:39;101835.75;;;2.18;80.56
57668;BME280;43499;52.366;12.912;2024-03-06T04:40:40;101826.69;;;2.21;80.61
57668;BME280;43499;52.366;12.912;2024-03-06T04:41:41;101826.50;;;2.20;80.46
57668;BME280;43499;52.366;12.912;2024-03-06T04:42:45;101825.97;;;2.22;80.78
57668;BME280;43499;52.366;12.912;2024-03-06T04:43:46;101835.31;;;2.27;80.46
57668;BME280;43499;52.366;12.912;2024-03-06T04:44:48;101841.53;;;2.22;80.39
57668;BME280;43499;52.366;12.912;2024-03-06T04:45:49;101826.09;;;2.16;80.57
57668;BME280;43499;52.366;12.912;2024-03-06T04:46:50;101833.97;;;2.24;80.63
57668;BME280;43499;52.366;12.912;2024-03-06T04:47:51;101847.44;;;2.21;80.97
57668;BME280;43499;52.366;12.912;2024-03-06T04:48:52;101846.84;;;2.16;80.37
57668;BME280;43499;52.366;12.912;2024-03-06T04:49:53;101844.53;;;2.25;80.41
57668;BME280;43499;52.366;12.912;2024-03-06T04:50:55;101842.47;;;2.23;79.99
57668;BME280;43499;52.366;12.912;2024-03-06T04:51:56;101850.09;;;2.08;79.67
57668;BME280;43499;52.366;12.912;2024-03-06T04:52:57;101853.94;;;2.05;79.58
57668;BME280;43499;52.366;12.912;2024-03-06T04:53:58;101823.66;;;1.85;79.91
57668;BME280;43499;52.366;12.912;2024-03-06T04:54:59;101850.00;;;2.01;79.77
57668;BME280;43499;52.366;12.912;2024-03-06T04:56:00;101812.19;;;1.83;79.34
57668;BME280;43499;52.366;12.912;2024-03-06T04:57:01;101826.50;;;1.87;78.66
57668;BME280;43499;52.366;12.912;2024-03-06T04:58:03;101861.72;;;1.92;78.39
57668;BME280;43499;52.366;12.912;2024-03-06T04:59:04;101839.66;;;1.88;80.09
57668;BME280;43499;52.366;12.912;2024-03-06T05:00:06;101851.03;;;1.96;81.11
57668;BME280;43499;52.366;12.912;2024-03-06T05:01:07;101864.31;;;2.05;81.31
57668;BME280;43499;52.366;12.912;2024-03-06T05:02:09;101859.41;;;2.13;81.44
57668;BME280;43499;52.366;12.912;2024-03-06T05:03:10;101856.53;;;2.05;81.61
57668;BME280;43499;52.366;12.912;2024-03-06T05:04:11;101858.78;;;2.09;81.74
57668;BME280;43499;52.366;12.912;2024-03-06T05:05:12;101818.59;;;1.92;81.70
57668;BME280;43499;52.366;12.912;2024-03-06T05:06:13;101851.13;;;2.03;81.24
57668;BME280;43499;52.366;12.912;2024-03-06T05:07:14;101862.63;;;2.05;80.81
57668;BME280;43499;52.366;12.912;2024-03-06T05:08:15;101840.69;;;1.96;80.74
57668;BME280;43499;52.366;12.912;2024-03-06T05:09:16;101867.28;;;2.08;80.54
57668;BME280;43499;52.366;12.912;2024-03-06T05:10:18;101855.59;;;2.04;80.60
57668;BME280;43499;52.366;12.912;2024-03-06T05:11:19;101862.88;;;2.07;80.22
57668;BME280;43499;52.366;12.912;2024-03-06T05:12:20;101867.53;;;2.09;80.83
57668;BME280;43499;52.366;12.912;2024-03-06T05:13:21;101865.84;;;2.10;80.68
57668;BME280;43499;52.366;12.912;2024-03-06T05:14:22;101871.25;;;2.11;80.84
57668;BME280;43499;52.366;12.912;2024-03-06T05:15:23;101867.13;;;1.93;80.54
57668;BME280;43499;52.366;12.912;2024-03-06T05:16:24;101882.47;;;1.92;80.31
57668;BME280;43499;52.366;12.912;2024-03-06T05:17:25;101865.81;;;1.90;80.52
57668;BME280;43499;52.366;12.912;2024-03-06T05:18:26;101878.66;;;1.95;80.56
57668;BME280;43499;52.366;12.912;2024-03-06T05:19:27;101883.00;;;1.89;80.74
57668;BME280;43499;52.366;12.912;2024-03-06T05:20:32;101867.25;;;1.88;80.50
57668;BME280;43499;52.366;12.912;2024-03-06T05:21:33;101861.03;;;1.67;80.89